Time;durP1;ratioP1;P1;durP2;ratioP2;P2;SDS_P1;SDS_P2;PMS_P1;PMS_P2;Temp;Humidity;BMP_temperature;BMP_pressure;BME280_temperature;BME280_humidity;BME280_pressure;Samples;Min_cycle;Max_cycle;Signal;HPM_P1;HPM_P2
2023/05/16 00:01:59;;;;;;;2.67;1.20;;;21.50;66.90;;;;;;5081709;28;20052;-72
2023/05/16 00:04:28;;;;;;;2.40;1.05;;;21.50;66.80;;;;;;5081464;28;20097;-72
2023/05/16 00:06:55;;;;;;;2.97;1.35;;;21.40;66.80;;;;;;5067332;28;20056;-71
2023/05/16 00:09:22;;;;;;;2.75;0.60;;;21.40;66.80;;;;;;5080810;28;20051;-72
2023/05/16 00:11:49;;;;;;;3.03;1.38;;;21.40;66.80;;;;;;5071649;28;20079;-72
2023/05/16 00:14:18;;;;;;;1.35;0.50;;;21.40;66.80;;;;;;5085271;28;20056;-72
2023/05/16 00:16:46;;;;;;;1.58;0.63;;;21.40;67.40;;;;;;5083638;28;20087;-72
2023/05/16 00:19:13;;;;;;;2.58;0.90;;;21.40;66.80;;;;;;5079389;28;20564;-71
2023/05/16 00:21:43;;;;;;;2.35;1.42;;;21.40;66.80;;;;;;5082101;28;20394;-72
2023/05/16 00:24:10;;;;;;;2.85;1.20;;;21.40;66.80;;;;;;5082361;28;20101;-71
2023/05/16 00:26:37;;;;;;;2.40;1.20;;;21.40;66.80;;;;;;5085520;28;20056;-72
2023/05/16 00:29:04;;;;;;;2.65;0.98;;;21.40;66.80;;;;;;5083974;28;20055;-71
2023/05/16 00:31:31;;;;;;;2.10;0.52;;;21.40;66.80;;;;;;5077544;28;20481;-72
2023/05/16 00:33:58;;;;;;;1.58;1.15;;;21.40;66.80;;;;;;5079228;28;20424;-71
2023/05/16 00:36:25;;;;;;;2.17;0.73;;;21.40;66.80;;;;;;5081998;28;20067;-71
2023/05/16 00:38:53;;;;;;;2.42;0.65;;;21.40;66.80;;;;;;5079780;28;20039;-72
2023/05/16 00:41:21;;;;;;;2.53;1.13;;;21.40;66.80;;;;;;5082485;28;20431;-71
2023/05/16 00:43:48;;;;;;;2.03;0.68;;;21.40;66.80;;;;;;5081073;28;20139;-72
2023/05/16 00:46:15;;;;;;;2.20;1.40;;;21.30;66.80;;;;;;5081973;28;20052;-72
2023/05/16 00:48:42;;;;;;;1.88;0.63;;;21.40;66.80;;;;;;5080135;28;20056;-71
2023/05/16 00:51:09;;;;;;;2.78;1.33;;;21.30;66.80;;;;;;5083614;28;20574;-72
2023/05/16 00:53:36;;;;;;;2.38;0.98;;;21.40;66.80;;;;;;5077112;28;20091;-71
2023/05/16 00:56:06;;;;;;;1.77;0.50;;;21.30;66.80;;;;;;5080744;28;20044;-71
2023/05/16 00:58:33;;;;;;;1.83;0.93;;;21.30;66.80;;;;;;5086503;28;20120;-71
2023/05/16 01:01:02;;;;;;;1.75;1.10;;;21.30;66.80;;;;;;5082094;28;20044;-71
2023/05/16 01:03:30;;;;;;;3.85;1.48;;;21.30;66.80;;;;;;5083789;28;20134;-72
2023/05/16 01:05:57;;;;;;;1.83;0.50;;;21.30;67.40;;;;;;5084021;28;20048;-71
2023/05/16 01:08:24;;;;;;;1.98;0.50;;;21.30;66.80;;;;;;5089647;28;20520;-72
2023/05/16 01:11:01;;;;;;;2.33;1.17;;;21.30;66.80;;;;;;5086014;28;20052;-71
2023/05/16 01:13:38;;;;;;;2.20;1.10;;;21.30;66.80;;;;;;5085280;28;20482;-71
2023/05/16 01:16:13;;;;;;;1.95;0.50;;;21.30;66.80;;;;;;5087179;28;20075;-72
2023/05/16 01:18:48;;;;;;;2.33;1.00;;;21.30;66.70;;;;;;5083838;28;20055;-72
2023/05/16 01:21:21;;;;;;;2.03;0.50;;;21.30;66.80;;;;;;5085331;28;20062;-71
2023/05/16 01:23:52;;;;;;;2.08;0.60;;;21.30;66.80;;;;;;5086454;28;20059;-71
2023/05/16 01:26:23;;;;;;;1.73;0.50;;;21.30;66.80;;;;;;5084896;28;20056;-71
2023/05/16 01:28:51;;;;;;;2.15;0.90;;;21.30;66.70;;;;;;5081092;28;20048;-71
2023/05/16 01:31:18;;;;;;;1.92;0.52;;;21.30;66.80;;;;;;5079954;28;20063;-72
2023/05/16 01:33:46;;;;;;;2.92;0.90;;;21.20;66.70;;;;;;5083109;28;20045;-71
2023/05/16 01:36:21;;;;;;;1.98;0.50;;;21.20;66.70;;;;;;5085541;28;20047;-71
2023/05/16 01:38:59;;;;;;;2.40;0.40;;;21.30;66.70;;;;;;5082111;28;20051;-71
2023/05/16 01:41:35;;;;;;;1.98;1.27;;;21.30;66.80;;;;;;5087758;28;20048;-71
2023/05/16 01:44:07;;;;;;;1.83;1.20;;;21.20;66.70;;;;;;5084733;28;20040;-71
2023/05/16 01:46:44;;;;;;;1.73;0.50;;;21.20;66.70;;;;;;5085127;28;20052;-71
2023/05/16 01:49:16;;;;;;;1.80;1.10;;;21.20;66.70;;;;;;5078979;28;20679;-72
2023/05/16 01:51:48;;;;;;;1.58;0.40;;;21.20;66.60;;;;;;5082307;28;20109;-72
2023/05/16 01:54:18;;;;;;;2.67;0.60;;;21.20;66.60;;;;;;5088236;28;20567;-72
2023/05/16 01:56:53;;;;;;;2.80;1.23;;;21.20;66.70;;;;;;5085831;28;20048;-72
2023/05/16 01:59:22;;;;;;;2.60;1.05;;;21.20;66.70;;;;;;5086240;28;20409;-72
2023/05/16 02:01:49;;;;;;;2.53;0.40;;;21.20;66.70;;;;;;5082903;28;20418;-72
2023/05/16 02:04:16;;;;;;;2.40;0.50;;;21.20;66.70;;;;;;5086152;28;20044;-72
2023/05/16 02:06:43;;;;;;;1.52;0.57;;;21.20;66.70;;;;;;5080781;28;20040;-72
2023/05/16 02:09:10;;;;;;;1.98;0.93;;;21.20;66.70;;;;;;5086462;28;20075;-71
2023/05/16 02:11:37;;;;;;;1.92;0.82;;;21.20;66.70;;;;;;5086606;28;20139;-72
2023/05/16 02:14:05;;;;;;;1.75;0.40;;;21.10;66.70;;;;;;5089254;28;20055;-72
2023/05/16 02:16:34;;;;;;;2.00;0.40;;;21.20;66.70;;;;;;5088348;28;20056;-72
2023/05/16 02:19:01;;;;;;;3.20;0.55;;;21.20;66.70;;;;;;5085712;28;20568;-72
2023/05/16 02:21:27;;;;;;;1.88;0.90;;;21.10;66.60;;;;;;5086383;28;20048;-72
2023/05/16 02:23:54;;;;;;;2.13;1.00;;;21.10;66.70;;;;;;5083956;28;20066;-71
2023/05/16 02:26:21;;;;;;;2.25;0.98;;;21.10;67.10;;;;;;5079636;28;20071;-71
2023/05/16 02:28:48;;;;;;;1.90;1.17;;;21.10;66.60;;;;;;5087588;28;20044;-72
2023/05/16 02:31:27;;;;;;;2.70;0.63;;;21.10;66.60;;;;;;5080468;28;20052;-72
2023/05/16 02:33:54;;;;;;;2.28;0.98;;;21.10;66.50;;;;;;5080480;28;20063;-72
2023/05/16 02:36:21;;;;;;;1.50;0.47;;;21.10;66.60;;;;;;5084953;28;20071;-72
2023/05/16 02:38:48;;;;;;;2.20;0.40;;;21.10;66.60;;;;;;5078555;28;20051;-71
2023/05/16 02:41:15;;;;;;;2.92;0.40;;;21.10;66.60;;;;;;5085678;28;20040;-72
2023/05/16 02:43:42;;;;;;;1.73;0.63;;;21.10;66.60;;;;;;5085948;28;20390;-72
2023/05/16 02:46:21;;;;;;;1.70;0.70;;;21.10;66.60;;;;;;5087953;28;20071;-72
2023/05/16 02:48:49;;;;;;;2.30;0.77;;;21.10;66.50;;;;;;5086434;28;20048;-71
2023/05/16 02:51:16;;;;;;;2.28;0.22;;;21.10;66.60;;;;;;5085574;28;20065;-72
2023/05/16 02:53:44;;;;;;;2.38;0.47;;;21.10;66.50;;;;;;5085932;28;20048;-72
2023/05/16 02:56:10;;;;;;;1.45;0.45;;;21.10;66.50;;;;;;5086436;28;20048;-71
2023/05/16 02:58:37;;;;;;;1.33;0.40;;;21.00;66.50;;;;;;5086579;28;20047;-72
2023/05/16 03:01:05;;;;;;;2.28;0.68;;;21.10;66.60;;;;;;5084817;28;20048;-71
2023/05/16 03:03:34;;;;;;;3.17;0.75;;;21.00;66.50;;;;;;5087247;28;20089;-71
2023/05/16 03:06:03;;;;;;;2.63;0.68;;;21.10;66.50;;;;;;5086493;28;20131;-72
2023/05/16 03:08:30;;;;;;;2.85;0.40;;;21.00;66.50;;;;;;5085210;28;20051;-72
2023/05/16 03:10:57;;;;;;;1.40;0.30;;;21.10;66.50;;;;;;5079375;28;20048;-71
2023/05/16 03:13:24;;;;;;;2.05;0.38;;;21.10;66.60;;;;;;5080998;28;20086;-72
2023/05/16 03:15:52;;;;;;;2.45;0.65;;;21.10;66.60;;;;;;5086610;28;20127;-72
2023/05/16 03:18:20;;;;;;;2.35;1.10;;;21.00;66.50;;;;;;5084296;28;20520;-72
2023/05/16 03:20:46;;;;;;;2.00;0.43;;;21.00;66.50;;;;;;5082562;28;20052;-72
2023/05/16 03:23:15;;;;;;;2.45;0.52;;;21.00;66.50;;;;;;5086273;28;20050;-72
2023/05/16 03:25:45;;;;;;;3.30;0.80;;;21.00;66.50;;;;;;5084450;28;20420;-72
2023/05/16 03:28:12;;;;;;;1.67;0.30;;;21.00;66.50;;;;;;5080430;28;20052;-72
2023/05/16 03:30:39;;;;;;;1.90;0.28;;;21.00;66.50;;;;;;5082513;28;20059;-72
2023/05/16 03:33:06;;;;;;;1.40;0.30;;;21.00;66.50;;;;;;5087502;28;20881;-72
2023/05/16 03:35:34;;;;;;;2.78;0.90;;;21.00;66.50;;;;;;5084839;28;20419;-72
2023/05/16 03:38:01;;;;;;;2.53;1.27;;;21.00;66.50;;;;;;5080072;28;20044;-72
2023/05/16 03:40:29;;;;;;;1.80;0.35;;;21.00;66.50;;;;;;5083637;28;20043;-72
2023/05/16 03:42:56;;;;;;;3.45;0.63;;;21.00;66.50;;;;;;5077687;28;20047;-72
2023/05/16 03:45:23;;;;;;;2.30;0.43;;;21.00;67.10;;;;;;5078384;28;20052;-72
2023/05/16 03:47:50;;;;;;;3.00;0.45;;;21.00;66.50;;;;;;5084905;28;20126;-72
2023/05/16 03:50:18;;;;;;;1.55;0.30;;;21.00;66.50;;;;;;5085790;28;20067;-72
2023/05/16 03:52:45;;;;;;;4.13;0.85;;;21.00;66.50;;;;;;5085588;28;20052;-71
2023/05/16 03:55:13;;;;;;;2.10;0.50;;;21.00;66.40;;;;;;5083869;28;20044;-72
2023/05/16 03:57:43;;;;;;;2.30;0.52;;;21.00;66.40;;;;;;5083330;28;20044;-71
2023/05/16 04:00:12;;;;;;;1.98;0.43;;;21.00;66.40;;;;;;5081896;28;20045;-71
2023/05/16 04:02:40;;;;;;;1.50;0.75;;;21.00;66.40;;;;;;5085460;28;20040;-71
2023/05/16 04:05:09;;;;;;;1.90;0.77;;;21.00;66.40;;;;;;5079690;28;20436;-71
2023/05/16 04:07:36;;;;;;;3.83;0.38;;;21.00;66.40;;;;;;5084082;28;20514;-72
2023/05/16 04:10:03;;;;;;;3.70;0.38;;;21.00;66.40;;;;;;5096291;28;20499;-71
2023/05/16 04:12:30;;;;;;;2.17;0.22;;;20.90;66.30;;;;;;5084772;28;20059;-71
2023/05/16 04:14:59;;;;;;;2.25;1.17;;;20.90;66.30;;;;;;5081010;28;20071;-71
2023/05/16 04:17:26;;;;;;;2.55;0.52;;;21.00;66.40;;;;;;5083414;28;20052;-71
2023/05/16 04:19:53;;;;;;;2.40;0.90;;;20.90;66.30;;;;;;5097907;28;20045;-71
2023/05/16 04:22:21;;;;;;;2.30;1.67;;;21.00;66.40;;;;;;5084887;28;20052;-71
2023/05/16 04:24:49;;;;;;;3.13;0.98;;;20.90;66.30;;;;;;5083377;28;20051;-72
2023/05/16 04:27:16;;;;;;;1.95;0.50;;;20.90;66.20;;;;;;5082727;28;20134;-71
2023/05/16 04:29:43;;;;;;;1.80;0.70;;;20.90;66.30;;;;;;5082711;28;20062;-71
2023/05/16 04:32:11;;;;;;;1.75;0.70;;;20.90;66.30;;;;;;5083686;28;20413;-72
2023/05/16 04:34:38;;;;;;;2.28;0.57;;;20.90;66.20;;;;;;5084601;28;20059;-71
2023/05/16 04:37:06;;;;;;;2.30;0.43;;;20.90;66.20;;;;;;5087464;28;20143;-71
2023/05/16 04:39:33;;;;;;;1.85;0.60;;;20.90;66.20;;;;;;5088749;28;20506;-72
2023/05/16 04:42:00;;;;;;;2.95;0.68;;;20.90;66.20;;;;;;5090697;28;20527;-71
2023/05/16 04:44:28;;;;;;;3.55;0.45;;;20.90;66.20;;;;;;5087495;28;20129;-72
2023/05/16 04:46:55;;;;;;;3.28;0.88;;;20.90;66.20;;;;;;5089431;28;20118;-72
2023/05/16 04:49:23;;;;;;;3.50;1.05;;;20.90;66.20;;;;;;5080395;28;20489;-71
2023/05/16 04:51:50;;;;;;;1.80;0.40;;;20.90;66.20;;;;;;5088256;28;20056;-72
2023/05/16 04:54:17;;;;;;;3.58;0.40;;;20.90;66.20;;;;;;5087852;28;20134;-72
2023/05/16 04:56:44;;;;;;;2.40;0.50;;;20.90;66.20;;;;;;5087498;28;20044;-72
2023/05/16 04:59:11;;;;;;;2.38;0.40;;;20.90;66.20;;;;;;5084598;28;20052;-72
2023/05/16 05:01:38;;;;;;;1.67;0.30;;;20.90;66.20;;;;;;5081822;28;21664;-72
2023/05/16 05:04:05;;;;;;;1.60;0.20;;;20.90;66.20;;;;;;5086216;28;20050;-72
2023/05/16 05:06:34;;;;;;;2.45;0.38;;;20.90;66.20;;;;;;5084037;28;20060;-72
2023/05/16 05:09:01;;;;;;;2.65;0.35;;;20.90;66.80;;;;;;5087161;28;20500;-72
2023/05/16 05:11:28;;;;;;;1.60;0.30;;;20.90;66.20;;;;;;5082927;28;20056;-71
2023/05/16 05:13:55;;;;;;;1.88;0.32;;;20.90;66.20;;;;;;5086004;28;20056;-71
2023/05/16 05:16:22;;;;;;;2.78;0.65;;;20.90;66.20;;;;;;5083973;28;20408;-72
2023/05/16 05:18:49;;;;;;;1.92;1.13;;;20.90;66.20;;;;;;5080949;28;20234;-72
2023/05/16 05:21:17;;;;;;;1.20;0.30;;;20.90;66.20;;;;;;5081678;28;20086;-72
2023/05/16 05:23:45;;;;;;;2.63;0.30;;;20.90;66.20;;;;;;5087180;28;20048;-71
2023/05/16 05:26:12;;;;;;;2.63;0.40;;;20.90;66.10;;;;;;5086275;28;20063;-71
2023/05/16 05:28:39;;;;;;;1.52;0.40;;;20.90;66.10;;;;;;5082350;28;20056;-71
2023/05/16 05:31:06;;;;;;;1.20;0.20;;;20.90;66.20;;;;;;5074641;28;20053;-71
2023/05/16 05:33:34;;;;;;;1.75;0.40;;;20.90;66.20;;;;;;5082653;28;20044;-71
2023/05/16 05:36:01;;;;;;;1.77;0.47;;;20.90;66.10;;;;;;5077852;28;20049;-71
2023/05/16 05:38:28;;;;;;;2.40;0.65;;;20.90;66.10;;;;;;5078609;28;20429;-71
2023/05/16 05:40:56;;;;;;;1.75;0.28;;;20.90;66.10;;;;;;5089178;28;20515;-71
2023/05/16 05:43:23;;;;;;;1.58;0.30;;;20.90;66.10;;;;;;5087170;28;20066;-71
2023/05/16 05:45:50;;;;;;;1.67;0.73;;;20.90;66.20;;;;;;5090244;28;20432;-71
2023/05/16 05:48:17;;;;;;;1.90;0.30;;;20.90;66.20;;;;;;5085252;28;20052;-71
2023/05/16 05:50:44;;;;;;;1.95;0.30;;;20.90;66.10;;;;;;5089137;28;20060;-71
2023/05/16 05:53:11;;;;;;;2.42;0.30;;;20.90;66.10;;;;;;5085481;28;20066;-71
2023/05/16 05:55:40;;;;;;;3.08;0.65;;;20.90;66.20;;;;;;5085777;28;20453;-71
2023/05/16 05:58:09;;;;;;;2.22;0.43;;;20.90;66.10;;;;;;5086936;28;20122;-71
2023/05/16 06:00:36;;;;;;;2.67;1.05;;;20.90;66.10;;;;;;5088026;28;20048;-71
2023/05/16 06:03:03;;;;;;;2.92;0.38;;;20.90;66.10;;;;;;5083590;28;20086;-71
2023/05/16 06:05:30;;;;;;;2.88;0.85;;;20.90;66.10;;;;;;5087020;28;20405;-71
2023/05/16 06:07:57;;;;;;;1.65;0.60;;;20.90;66.10;;;;;;5082834;28;20517;-71
2023/05/16 06:10:24;;;;;;;3.00;0.63;;;20.90;66.10;;;;;;5080759;28;20431;-71
2023/05/16 06:12:51;;;;;;;1.52;0.85;;;20.90;66.10;;;;;;5086339;28;20127;-72
2023/05/16 06:15:19;;;;;;;1.08;0.22;;;20.90;66.10;;;;;;5082704;28;20051;-71
2023/05/16 06:17:46;;;;;;;1.42;0.20;;;20.90;66.10;;;;;;5078860;28;20058;-71
2023/05/16 06:20:13;;;;;;;2.22;0.90;;;20.90;66.10;;;;;;5088756;28;20045;-72
2023/05/16 06:22:40;;;;;;;2.40;0.40;;;20.90;66.10;;;;;;5085875;28;20048;-72
2023/05/16 06:25:08;;;;;;;1.95;0.40;;;21.00;66.20;;;;;;5081244;28;20047;-72
2023/05/16 06:27:35;;;;;;;2.03;0.32;;;21.00;66.20;;;;;;5082156;28;20516;-72
2023/05/16 06:30:02;;;;;;;2.25;0.25;;;21.00;66.30;;;;;;5083068;28;20865;-72
2023/05/16 06:32:30;;;;;;;1.42;0.20;;;21.00;66.30;;;;;;5083037;28;20049;-72
2023/05/16 06:34:57;;;;;;;2.53;0.20;;;21.00;66.30;;;;;;5087604;28;20504;-72
2023/05/16 06:37:25;;;;;;;2.45;0.17;;;21.00;66.30;;;;;;5083593;28;20440;-73
2023/05/16 06:39:52;;;;;;;1.52;0.57;;;21.00;66.40;;;;;;5085967;28;20481;-73
2023/05/16 06:42:19;;;;;;;1.48;0.20;;;21.00;66.40;;;;;;5080273;28;20049;-72
2023/05/16 06:44:46;;;;;;;2.22;0.65;;;21.00;66.40;;;;;;5085131;28;20676;-72
2023/05/16 06:47:13;;;;;;;2.13;0.45;;;21.00;66.40;;;;;;5087431;28;20377;-72
2023/05/16 06:49:41;;;;;;;1.45;0.47;;;21.00;66.40;;;;;;5088964;28;20534;-72
2023/05/16 06:52:08;;;;;;;1.83;0.30;;;21.00;66.40;;;;;;5085292;28;20654;-72
2023/05/16 06:54:35;;;;;;;2.58;0.30;;;21.00;66.40;;;;;;5085855;28;20142;-72
2023/05/16 06:57:03;;;;;;;1.60;0.22;;;21.00;66.40;;;;;;5084556;28;20052;-72
2023/05/16 06:59:30;;;;;;;2.83;1.00;;;21.00;66.40;;;;;;5082817;28;20044;-72
2023/05/16 07:01:57;;;;;;;2.33;0.52;;;21.00;66.30;;;;;;5087140;28;20060;-72
2023/05/16 07:04:24;;;;;;;1.65;0.38;;;21.00;66.90;;;;;;5083591;28;20052;-72
2023/05/16 07:06:52;;;;;;;2.97;0.40;;;21.10;66.30;;;;;;5084096;28;20132;-72
2023/05/16 07:09:19;;;;;;;2.05;0.40;;;21.00;66.30;;;;;;5086555;28;20518;-71
2023/05/16 07:11:46;;;;;;;2.05;0.22;;;21.00;66.30;;;;;;5080879;28;20115;-72
2023/05/16 07:14:13;;;;;;;1.65;0.73;;;21.00;66.30;;;;;;5086507;28;20045;-72
2023/05/16 07:16:40;;;;;;;2.47;0.32;;;21.00;66.30;;;;;;5083979;28;20059;-72
2023/05/16 07:19:07;;;;;;;1.83;0.22;;;21.10;66.30;;;;;;5087768;28;20059;-72
2023/05/16 07:21:34;;;;;;;1.50;0.47;;;21.00;66.20;;;;;;5084583;28;20083;-72
2023/05/16 07:24:03;;;;;;;1.70;0.22;;;21.10;66.30;;;;;;5088072;28;20048;-72
2023/05/16 07:26:30;;;;;;;3.50;0.57;;;21.00;66.20;;;;;;5078576;28;20065;-72
2023/05/16 07:28:57;;;;;;;1.60;0.47;;;21.10;66.30;;;;;;5079753;28;20051;-72
2023/05/16 07:31:24;;;;;;;1.92;0.40;;;21.10;66.20;;;;;;5080963;28;20052;-72
2023/05/16 07:33:51;;;;;;;2.13;0.50;;;21.10;66.20;;;;;;5080836;28;20115;-72
2023/05/16 07:36:18;;;;;;;0.95;0.20;;;21.10;66.10;;;;;;5084193;28;20488;-72
2023/05/16 07:38:45;;;;;;;2.30;0.55;;;21.10;66.10;;;;;;5081369;28;20510;-72
2023/05/16 07:41:13;;;;;;;2.42;0.50;;;21.10;66.10;;;;;;5085121;28;20044;-72
2023/05/16 07:43:40;;;;;;;2.38;0.47;;;21.10;66.00;;;;;;5078202;28;20052;-72
2023/05/16 07:46:07;;;;;;;2.60;0.25;;;21.10;66.00;;;;;;5085068;28;20048;-72
2023/05/16 07:48:34;;;;;;;1.35;0.30;;;21.10;66.00;;;;;;5088409;28;20048;-72
2023/05/16 07:51:01;;;;;;;2.50;0.45;;;21.10;66.10;;;;;;5083564;28;20511;-72
2023/05/16 07:53:28;;;;;;;1.33;0.30;;;21.10;66.10;;;;;;5081961;28;20129;-72
2023/05/16 07:55:56;;;;;;;1.52;0.20;;;21.10;66.10;;;;;;5086655;28;20054;-72
2023/05/16 07:58:24;;;;;;;1.92;0.50;;;21.10;66.10;;;;;;5083507;28;20125;-72
2023/05/16 08:00:51;;;;;;;1.20;0.50;;;21.20;66.10;;;;;;5082341;28;20449;-72
2023/05/16 08:03:18;;;;;;;2.08;0.68;;;21.10;66.10;;;;;;5083870;28;20044;-72
2023/05/16 08:05:45;;;;;;;2.75;0.77;;;21.10;66.00;;;;;;5082914;28;20052;-72
2023/05/16 08:08:12;;;;;;;1.38;0.28;;;21.20;66.10;;;;;;5083651;28;20048;-72
2023/05/16 08:10:39;;;;;;;1.80;0.77;;;21.20;66.00;;;;;;5099775;28;20466;-72
2023/05/16 08:13:06;;;;;;;1.77;0.30;;;21.20;66.00;;;;;;5086773;28;20528;-72
2023/05/16 08:15:34;;;;;;;1.60;0.17;;;21.20;66.00;;;;;;5083289;28;20055;-72
2023/05/16 08:18:01;;;;;;;1.40;0.32;;;21.20;66.00;;;;;;5081215;28;20041;-72
2023/05/16 08:20:28;;;;;;;3.13;0.88;;;21.20;66.00;;;;;;5083233;28;20056;-72
2023/05/16 08:22:55;;;;;;;2.13;0.40;;;21.20;66.00;;;;;;5082277;28;20051;-72
2023/05/16 08:25:22;;;;;;;1.67;0.30;;;21.20;66.00;;;;;;5083695;28;20056;-72
2023/05/16 08:27:50;;;;;;;2.10;0.82;;;21.20;66.00;;;;;;5082379;28;20381;-71
2023/05/16 08:30:17;;;;;;;1.83;0.32;;;21.20;65.90;;;;;;5086440;28;20403;-72
2023/05/16 08:32:46;;;;;;;1.38;0.20;;;21.20;65.90;;;;;;5081948;28;20133;-72
2023/05/16 08:35:13;;;;;;;2.28;0.55;;;21.20;65.90;;;;;;5082431;28;20447;-72
2023/05/16 08:37:40;;;;;;;3.63;0.73;;;21.20;65.80;;;;;;5082773;28;20420;-72
2023/05/16 08:40:10;;;;;;;2.08;0.30;;;21.30;65.90;;;;;;5087120;28;20044;-72
2023/05/16 08:42:37;;;;;;;2.20;0.30;;;21.20;65.80;;;;;;5083434;28;20063;-72
2023/05/16 08:45:06;;;;;;;1.42;0.32;;;21.20;65.70;;;;;;5086471;28;20052;-72
2023/05/16 08:47:35;;;;;;;1.05;0.10;;;21.20;65.70;;;;;;5084081;28;20044;-72
2023/05/16 08:50:05;;;;;;;1.58;0.43;;;21.30;65.80;;;;;;5085239;28;20075;-72
2023/05/16 08:52:33;;;;;;;1.75;0.40;;;21.30;65.80;;;;;;5083938;28;20485;-72
2023/05/16 08:55:04;;;;;;;1.55;0.40;;;21.30;65.70;;;;;;5087279;28;20534;-72
2023/05/16 08:57:32;;;;;;;1.83;0.38;;;21.30;65.70;;;;;;5086944;28;20056;-72
2023/05/16 09:00:00;;;;;;;1.80;0.82;;;21.30;65.70;;;;;;5084585;28;20085;-72
2023/05/16 09:02:28;;;;;;;2.65;0.55;;;21.30;65.60;;;;;;5085698;28;20047;-72
2023/05/16 09:04:58;;;;;;;1.92;0.35;;;21.30;65.60;;;;;;5077309;28;20053;-72
2023/05/16 09:07:26;;;;;;;1.95;0.77;;;21.30;65.60;;;;;;5084332;28;20060;-71
2023/05/16 09:09:53;;;;;;;3.05;0.43;;;21.30;65.60;;;;;;5080078;28;20048;-72
2023/05/16 09:12:21;;;;;;;1.33;0.52;;;21.30;65.60;;;;;;5081441;28;20075;-72
2023/05/16 09:14:48;;;;;;;2.00;0.55;;;21.30;65.60;;;;;;5080037;28;20049;-72
2023/05/16 09:17:15;;;;;;;1.55;0.82;;;21.30;65.60;;;;;;5081956;28;20052;-72
2023/05/16 09:19:44;;;;;;;2.67;0.88;;;21.30;65.60;;;;;;5082492;28;20048;-72
2023/05/16 09:22:13;;;;;;;2.17;0.50;;;21.30;65.60;;;;;;5087111;28;20048;-72
2023/05/16 09:24:42;;;;;;;0.95;0.30;;;21.30;65.60;;;;;;5077591;28;20049;-72
2023/05/16 09:27:10;;;;;;;1.02;0.28;;;21.30;65.60;;;;;;5085358;28;20488;-72
2023/05/16 09:29:39;;;;;;;2.03;0.30;;;21.30;65.60;;;;;;5083657;28;20048;-72
2023/05/16 09:32:12;;;;;;;1.25;0.20;;;21.30;65.60;;;;;;5088854;28;20056;-72
2023/05/16 09:34:42;;;;;;;2.70;0.77;;;21.30;65.60;;;;;;5087945;28;20428;-72
2023/05/16 09:37:10;;;;;;;0.93;0.43;;;21.30;65.60;;;;;;5086084;28;20048;-72
2023/05/16 09:39:39;;;;;;;1.98;0.40;;;21.30;65.60;;;;;;5086248;28;20048;-72
2023/05/16 09:42:12;;;;;;;4.40;0.88;;;21.30;65.60;;;;;;5088133;28;20044;-72
2023/05/16 09:44:39;;;;;;;1.20;0.38;;;21.30;65.50;;;;;;5089353;28;20097;-72
2023/05/16 09:47:06;;;;;;;1.35;0.17;;;21.30;65.50;;;;;;5086592;28;20051;-72
2023/05/16 09:49:33;;;;;;;1.45;0.22;;;21.30;65.50;;;;;;5081880;28;20504;-72
2023/05/16 09:52:01;;;;;;;1.75;0.60;;;21.30;65.60;;;;;;5085447;28;20516;-72
2023/05/16 09:54:32;;;;;;;3.78;1.00;;;21.30;65.60;;;;;;5088077;28;20417;-72
2023/05/16 09:57:00;;;;;;;1.80;0.68;;;21.30;65.60;;;;;;5077793;28;20221;-71
2023/05/16 09:59:30;;;;;;;2.05;0.70;;;21.30;65.60;;;;;;5083212;28;20052;-72
2023/05/16 10:01:59;;;;;;;2.20;0.73;;;21.30;65.60;;;;;;5082576;28;20058;-73
2023/05/16 10:04:26;;;;;;;2.63;0.35;;;21.30;65.60;;;;;;5080459;28;20052;-72
2023/05/16 10:06:55;;;;;;;2.20;0.20;;;21.40;65.60;;;;;;5087346;28;20063;-73
2023/05/16 10:09:23;;;;;;;2.33;0.22;;;21.40;65.70;;;;;;5086083;28;20127;-73
2023/05/16 10:11:52;;;;;;;2.85;0.30;;;21.40;65.60;;;;;;5088721;28;20142;-74
2023/05/16 10:14:19;;;;;;;2.70;0.32;;;21.40;65.60;;;;;;5084594;28;20056;-74
2023/05/16 10:16:49;;;;;;;2.17;0.20;;;21.40;65.60;;;;;;5086923;28;20052;-74
2023/05/16 10:19:20;;;;;;;1.38;0.20;;;21.40;65.70;;;;;;5083157;28;20161;-74
2023/05/16 10:21:52;;;;;;;3.42;0.93;;;21.40;65.70;;;;;;5086018;28;20421;-74
2023/05/16 10:24:26;;;;;;;1.42;0.10;;;21.40;65.80;;;;;;5086586;28;20052;-74
2023/05/16 10:26:53;;;;;;;1.70;0.68;;;21.40;65.80;;;;;;5087556;28;20052;-73
2023/05/16 10:29:21;;;;;;;1.90;0.43;;;21.40;65.80;;;;;;5081773;28;20075;-73
2023/05/16 10:31:50;;;;;;;1.38;0.10;;;21.50;65.90;;;;;;5085512;28;20058;-74
2023/05/16 10:34:18;;;;;;;1.98;0.40;;;21.50;65.90;;;;;;5079646;28;20052;-73
2023/05/16 10:36:46;;;;;;;1.77;0.75;;;21.50;66.50;;;;;;5083042;28;20060;-73
2023/05/16 10:39:14;;;;;;;1.70;0.22;;;21.50;66.00;;;;;;5085737;28;20381;-73
2023/05/16 10:41:42;;;;;;;2.10;0.32;;;21.50;65.90;;;;;;5088011;28;20063;-74
2023/05/16 10:44:14;;;;;;;0.60;0.10;;;21.60;66.00;;;;;;5087685;28;20047;-75
2023/05/16 10:46:42;;;;;;;1.77;0.73;;;21.60;66.00;;;;;;5071913;28;20055;-73
2023/05/16 10:49:24;;;;;;;2.40;0.90;;;21.60;65.90;;;;;;5086513;28;20389;-75
2023/05/16 10:52:04;;;;;;;1.83;0.20;;;21.60;65.90;;;;;;5081021;28;20056;-74
2023/05/16 10:54:36;;;;;;;2.40;0.88;;;21.60;65.90;;;;;;5085304;28;20113;-75
2023/05/16 10:57:08;;;;;;;3.40;0.43;;;21.60;65.90;;;;;;5087056;28;20094;-74
2023/05/16 10:59:44;;;;;;;1.65;0.55;;;21.70;66.00;;;;;;5084966;28;20044;-76
2023/05/16 11:02:25;;;;;;;2.10;0.30;;;21.60;65.90;;;;;;5080846;28;20054;-76
2023/05/16 11:04:56;;;;;;;2.47;0.32;;;21.70;66.00;;;;;;5083358;28;20055;-73
2023/05/16 11:07:24;;;;;;;1.23;0.20;;;21.70;66.00;;;;;;5084037;28;20044;-71
2023/05/16 11:10:04;;;;;;;1.60;0.68;;;21.60;66.00;;;;;;5082704;28;20044;-72
2023/05/16 11:12:42;;;;;;;1.88;0.20;;;21.70;66.00;;;;;;5083134;28;20083;-73
2023/05/16 11:15:26;;;;;;;1.27;0.45;;;21.70;66.00;;;;;;5081786;28;20530;-72
2023/05/16 11:18:05;;;;;;;1.65;0.43;;;21.70;66.00;;;;;;5081911;28;20044;-73
2023/05/16 11:20:36;;;;;;;2.33;0.50;;;21.70;66.10;;;;;;5077969;28;20056;-73
2023/05/16 11:23:20;;;;;;;1.90;0.30;;;21.70;66.00;;;;;;5083216;28;20040;-73
2023/05/16 11:25:49;;;;;;;2.53;0.30;;;21.70;66.10;;;;;;5079082;28;20050;-74
2023/05/16 11:28:17;;;;;;;;;;;21.70;66.10;;;;;;5084218;28;20056;-74
2023/05/16 11:30:46;;;;;;;1.10;0.30;;;21.70;66.10;;;;;;5080395;28;19927;-75
2023/05/16 11:33:13;;;;;;;1.55;0.70;;;21.70;66.10;;;;;;5082141;28;20048;-74
2023/05/16 11:35:42;;;;;;;1.50;0.68;;;21.70;66.10;;;;;;5079542;28;20053;-74
2023/05/16 11:38:15;;;;;;;3.33;0.77;;;21.70;66.10;;;;;;5077774;28;20111;-73
2023/05/16 11:40:46;;;;;;;1.65;0.40;;;21.70;66.10;;;;;;5082442;28;20052;-73
2023/05/16 11:43:19;;;;;;;2.45;0.35;;;21.70;66.10;;;;;;5084243;28;20044;-74
2023/05/16 11:45:46;;;;;;;1.73;0.28;;;21.80;66.20;;;;;;5081781;28;20535;-74
2023/05/16 11:48:13;;;;;;;2.10;0.20;;;21.80;66.20;;;;;;5086731;28;20051;-74
2023/05/16 11:50:42;;;;;;;2.10;0.60;;;21.80;66.20;;;;;;5086019;28;20046;-74
2023/05/16 11:53:09;;;;;;;1.88;0.30;;;21.80;66.20;;;;;;5082663;28;20058;-74
2023/05/16 11:55:37;;;;;;;1.25;0.30;;;21.80;66.20;;;;;;5084439;28;20055;-74
2023/05/16 11:58:05;;;;;;;1.63;0.40;;;21.80;66.20;;;;;;5081748;28;20040;-74
2023/05/16 12:00:33;;;;;;;2.10;0.73;;;21.80;66.20;;;;;;5084860;28;20048;-74
2023/05/16 12:03:03;;;;;;;1.55;0.20;;;21.80;66.10;;;;;;5080131;28;20052;-74
2023/05/16 12:05:31;;;;;;;1.38;0.50;;;21.80;66.20;;;;;;5085671;28;20113;-74
2023/05/16 12:07:59;;;;;;;3.00;0.20;;;21.80;66.10;;;;;;5087827;28;20105;-74
2023/05/16 12:10:26;;;;;;;1.40;0.50;;;21.90;66.20;;;;;;5084005;28;20052;-74
2023/05/16 12:12:55;;;;;;;3.40;0.70;;;21.90;66.20;;;;;;5083800;28;20071;-74
2023/05/16 12:15:22;;;;;;;3.03;0.30;;;21.90;66.10;;;;;;5084810;28;20539;-74
2023/05/16 12:17:49;;;;;;;1.75;0.38;;;21.90;66.10;;;;;;5083095;28;20071;-74
2023/05/16 12:20:17;;;;;;;1.90;0.63;;;21.90;66.10;;;;;;5085129;28;20051;-74
2023/05/16 12:22:45;;;;;;;1.38;0.17;;;22.00;66.10;;;;;;5084815;28;20056;-74
2023/05/16 12:25:26;;;;;;;1.35;0.15;;;22.00;66.00;;;;;;5081987;28;20047;-74
2023/05/16 12:27:54;;;;;;;1.63;0.57;;;22.10;66.00;;;;;;5083512;28;20040;-74
2023/05/16 12:30:23;;;;;;;2.13;0.20;;;22.10;66.00;;;;;;5080673;28;20044;-74
2023/05/16 12:32:55;;;;;;;1.85;0.50;;;22.00;65.90;;;;;;5080805;28;20052;-74
2023/05/16 12:35:22;;;;;;;1.02;0.20;;;22.10;66.00;;;;;;5080747;28;20043;-74
2023/05/16 12:37:51;;;;;;;1.50;0.50;;;22.00;65.90;;;;;;5082336;28;20047;-74
2023/05/16 12:40:19;;;;;;;2.47;0.90;;;22.10;66.00;;;;;;5082044;28;20040;-74
2023/05/16 12:42:50;;;;;;;1.58;0.20;;;22.10;66.00;;;;;;5085147;28;20040;-74
2023/05/16 12:45:17;;;;;;;1.48;0.32;;;22.10;66.00;;;;;;5080374;28;20588;-74
2023/05/16 12:47:45;;;;;;;1.75;0.50;;;22.10;66.00;;;;;;5085523;28;20500;-74
2023/05/16 12:50:15;;;;;;;1.55;0.63;;;22.10;66.00;;;;;;5085994;28;20489;-74
2023/05/16 12:52:50;;;;;;;1.88;0.45;;;22.20;66.00;;;;;;5086164;28;20056;-74
2023/05/16 12:55:17;;;;;;;1.10;0.40;;;22.20;66.00;;;;;;5088068;28;20484;-74